Latest Weather Observations for Westmere

IDV60801

Issued at 7:52 am EST Saturday 24 August 2019 (issued every 10 minutes, with the page automatically refreshed every 10 minutes)

About weather observations | Map of weather stations | Latest weather observations for VIC | Other Formats
Station Details ID: 089112 Name: WESTMERE Lat: -37.71 Lon: 142.94 Height: 226.0 m
Data from the previous 72 hours. | See also: Recent months at Westmere
Date/Time
EST
Temp
°C
App
Temp
°C
Dew
Point
°C
Rel
Hum
%
Delta-T
°C
Wind Press
QNH
hPa
Press
MSL
hPa
Rain since
9am
mm
Dir  Spd
km/h
Gust
km/h
Spd
kts
Gust
kts
24/07:30am 6.7 0.6 3.0 77 1.6 N 24 32 13 17 1014.3 1014.6 0.0
24/07:00am 6.6 -0.2 3.2 79 1.4 N 28 35 15 19 1014.1 1014.4 0.0
24/06:30am 6.4 0.4 3.4 81 1.3 N 24 32 13 17 1014.2 1014.5 0.0
24/06:00am 6.6 1.0 3.4 80 1.4 N 22 28 12 15 1014.3 1014.6 0.0
24/05:30am 7.3 0.6 3.4 76 1.7 N 28 37 15 20 1014.5 1014.8 0.0
24/05:00am 7.6 1.7 3.8 77 1.7 N 24 30 13 16 1014.8 1015.1 0.0
24/04:30am 7.4 1.9 3.8 78 1.6 N 22 28 12 15 1015.0 1015.3 0.0
24/04:00am 7.3 2.2 3.9 79 1.5 N 20 30 11 16 1015.3 1015.6 0.0
24/03:30am 7.1 2.0 4.2 82 1.3 N 20 28 11 15 1015.6 1016.0 0.0
24/03:00am 7.8 1.2 4.2 78 1.6 N 28 37 15 20 1015.7 1016.1 0.0
24/02:30am 8.0 1.8 4.4 78 1.6 N 26 33 14 18 1016.1 1016.5 0.0
24/02:00am 7.8 2.0 4.6 80 1.4 N 24 33 13 18 1016.4 1016.8 0.0
24/01:30am 7.8 0.9 4.7 81 1.4 N 30 39 16 21 1016.3 1016.7 0.0
24/01:00am 7.2 1.9 5.2 87 0.9 N 22 30 12 16 1016.9 1017.3 0.0
24/12:30am 7.2 2.9 5.3 88 0.9 N 17 22 9 12 1017.6 1017.9 0.0
24/12:00am 7.4 3.6 5.7 89 0.8 N 15 20 8 11 1017.9 1018.2 0.0
 
Date/Time
EST
Temp
°C
App
Temp
°C
Dew
Point
°C
Rel
Hum
%
Delta-T
°C
Wind Press
QNH
hPa
Press
MSL
hPa
Rain since
9am
mm
Dir  Spd
km/h
Gust
km/h
Spd
kts
Gust
kts
23/11:30pm 7.4 2.8 5.5 88 0.9 N 19 24 10 13 1018.2 1018.5 0.0
23/11:00pm 8.1 4.4 6.4 89 0.8 NNW 15 24 8 13 1018.2 1018.5 0.0
23/10:30pm 7.9 3.9 6.5 91 0.7 N 17 24 9 13 1018.2 1018.5 0.0
23/10:00pm 7.9 4.7 6.8 93 0.5 N 13 17 7 9 1018.3 1018.6 0.0
23/09:30pm 7.3 3.9 6.1 92 0.5 N 13 17 7 9 1018.5 1018.8 0.0
23/09:00pm 8.0 3.4 6.6 91 0.7 N 20 24 11 13 1018.7 1019.0 0.0
23/08:30pm 8.2 3.6 6.3 88 0.9 N 20 26 11 14 1019.2 1019.6 0.0
23/08:00pm 8.9 4.0 7.0 88 0.9 N 22 30 12 16 1019.5 1019.9 0.0
23/07:30pm 9.0 4.7 7.0 87 0.9 N 19 24 10 13 1019.7 1020.1 0.0
23/07:00pm 9.0 5.1 7.0 87 0.9 N 17 22 9 12 1019.8 1020.2 0.0
23/06:30pm 8.9 5.2 6.2 83 1.3 N 15 20 8 11 1020.1 1020.5 0.0
23/06:00pm 10.2 5.6 6.5 78 1.7 NNW 20 30 11 16 1019.9 1020.3 0.0
23/05:30pm 11.0 5.7 6.6 74 2.1 N 24 35 13 19 1019.3 1019.7 0.0
23/05:00pm 11.7 5.2 6.4 70 2.5 N 30 41 16 22 1018.8 1019.1 0.0
23/04:30pm 12.0 4.5 6.5 69 2.6 N 35 46 19 25 1018.9 1019.2 0.0
23/04:00pm 12.2 6.1 6.7 69 2.6 N 28 41 15 22 1018.8 1019.1 0.0
23/03:30pm 12.4 5.4 6.7 68 2.8 N 33 46 18 25 1019.0 1019.3 0.0
23/03:00pm 12.5 6.1 7.0 69 2.7 N 30 50 16 27 1019.8 1020.2 0.0
23/02:30pm 12.2 4.7 6.5 68 2.7 N 35 46 19 25 1020.1 1020.5 0.0
23/02:00pm 12.4 6.1 7.3 71 2.5 N 30 43 16 23 1020.4 1020.8 0.0
23/01:30pm 12.0 6.0 6.9 71 2.5 N 28 37 15 20 1021.0 1021.4 0.0
23/01:00pm 11.9 6.2 6.8 71 2.5 NNW 26 35 14 19 1021.8 1022.1 0.0
23/12:30pm 10.6 5.2 6.4 75 2.0 N 24 32 13 17 1022.4 1022.7 0.0
23/12:00pm 10.8 5.8 6.6 75 2.0 N 22 28 12 15 1023.0 1023.4 0.0
23/11:30am 10.8 6.4 6.7 76 2.0 N 19 26 10 14 1023.5 1023.9 0.0
23/11:00am 10.3 5.7 6.6 78 1.7 N 20 30 11 16 1023.9 1024.3 0.0
23/10:30am 9.1 4.6 6.2 82 1.4 N 19 24 10 13 1024.2 1024.6 0.0
23/10:00am 9.1 4.7 6.5 84 1.2 N 19 24 10 13 1024.6 1025.0 0.0
23/09:30am 8.7 4.3 6.7 87 0.9 N 19 24 10 13 1025.0 1025.4 0.0
23/09:00am 8.1 4.1 6.6 90 0.7 N 17 22 9 12 1025.2 1025.6 0.0
23/08:30am 7.4 4.2 6.8 96 0.3 NNW 13 19 7 10 1025.5 1025.9 0.0
23/08:00am 6.6 4.5 6.6 100 0.0 NNW 7 11 4 6 1025.3 1025.7 0.0
23/07:30am 6.5 4.4 6.5 100 0.0 NNW 7 11 4 6 1025.2 1025.6 0.0
23/07:00am 6.2 4.2 6.2 100 0.0 NNW 6 9 3 5 1025.1 1025.5 0.0
23/06:30am 6.2 4.0 6.2 100 0.0 NNW 7 9 4 5 1025.0 1025.4 0.0
23/06:00am 5.9 3.8 5.9 100 0.0 NNW 6 9 3 5 1024.9 1025.3 0.0
23/05:30am 5.5 3.3 5.5 100 0.0 NNW 6 7 3 4 1024.8 1025.2 0.0
23/05:00am 5.2 3.4 5.2 100 0.0 NNW 4 6 2 3 1025.0 1025.4 0.0
23/04:30am 4.9 3.8 4.9 100 0.0 CALM 0 0 0 0 1025.2 1025.6 0.0
23/04:00am 4.5 2.1 4.5 100 0.0 NNW 6 9 3 5 1025.2 1025.6 0.0
23/03:30am 3.7 1.0 3.7 100 0.0 NNW 7 9 4 5 1025.2 1025.6 0.0
23/03:00am 2.3 -0.5 2.3 100 0.0 N 6 9 3 5 1025.4 1025.8 0.0
23/02:30am 0.3 -3.0 0.2 99 0.0 NNW 7 9 4 5 1025.8 1026.2 0.0
23/02:00am 0.1 -1.9 0.0 99 0.0 CALM 0 0 0 0 1026.0 1026.4 0.0
23/01:30am 1.5 -0.3 1.4 99 0.0 CALM 0 2 0 1 1026.1 1026.5 0.0
23/01:00am 1.9 -1.5 1.8 99 0.0 NW 9 9 5 5 1026.4 1026.7 0.0
23/12:30am 1.1 -1.5 1.0 99 0.0 W 4 6 2 3 1026.5 1026.8 0.0
23/12:00am 1.3 -0.5 1.2 99 0.0 CALM 0 0 0 0 1026.7 1027.1 0.0
 
Date/Time
EST
Temp
°C
App
Temp
°C
Dew
Point
°C
Rel
Hum
%
Delta-T
°C
Wind Press
QNH
hPa
Press
MSL
hPa
Rain since
9am
mm
Dir  Spd
km/h
Gust
km/h
Spd
kts
Gust
kts
22/11:30pm 1.1 -0.7 1.0 99 0.0 CALM 0 2 0 1 1026.8 1027.2 0.0
22/11:00pm 2.6 -0.1 2.5 99 0.0 W 6 6 3 3 1026.9 1027.3 0.0
22/10:30pm 2.0 -0.1 1.6 97 0.2 W 2 2 1 1 1027.2 1027.6 0.0
22/10:00pm 2.9 0.5 2.2 95 0.3 SW 4 6 2 3 1027.2 1027.6 0.0
22/09:30pm 2.6 0.5 1.4 92 0.5 SSW 2 4 1 2 1027.1 1027.5 0.0
22/09:00pm 4.7 3.3 3.4 91 0.5 CALM 0 0 0 0 1027.1 1027.5 0.0
22/08:30pm 5.4 4.1 3.9 90 0.6 CALM 0 0 0 0 1027.0 1027.4 0.0
22/08:00pm 5.3 3.9 3.5 88 0.8 CALM 0 0 0 0 1027.0 1027.4 0.0
22/07:30pm 6.0 3.9 3.8 86 0.9 SSW 4 4 2 2 1026.7 1027.1 0.0
22/07:00pm 6.3 3.8 4.0 85 1.0 SSW 6 6 3 3 1026.6 1026.9 0.0
22/06:30pm 5.9 2.8 3.7 86 0.9 SSW 9 11 5 6 1026.6 1026.9 0.0
22/06:00pm 7.2 4.2 4.2 81 1.3 SW 9 11 5 6 1026.5 1026.8 0.0
22/05:30pm 8.7 4.9 3.9 72 2.1 SSW 13 20 7 11 1026.2 1026.6 0.0
22/05:00pm 9.8 5.7 4.2 68 2.5 SSW 15 19 8 10 1026.0 1026.4 0.0
22/04:30pm 10.4 5.8 3.7 63 3.0 SW 17 24 9 13 1025.9 1026.3 0.0
22/04:00pm 10.7 5.8 4.2 64 2.9 SSW 19 24 10 13 1025.7 1026.1 0.0
22/03:30pm 11.0 6.1 4.2 63 3.1 SSW 19 28 10 15 1025.5 1025.9 0.0
22/03:00pm 10.5 5.8 5.3 70 2.4 SSW 19 24 10 13 1025.4 1025.8 0.0
22/02:30pm 11.7 6.9 4.7 62 3.2 SSW 19 26 10 14 1025.2 1025.6 0.0
22/02:00pm 10.8 5.5 5.1 68 2.6 SSW 22 32 12 17 1025.2 1025.6 0.0
22/01:30pm 10.0 4.8 5.4 73 2.1 SSW 22 32 12 17 1025.2 1025.6 0.0
22/01:00pm 10.8 5.4 4.7 66 2.8 SSW 22 33 12 18 1025.3 1025.7 0.0
22/12:30pm 11.1 5.5 5.2 67 2.7 SSW 24 33 13 18 1025.4 1025.8 0.0
22/12:00pm 10.7 5.0 5.0 68 2.6 SSW 24 35 13 19 1025.4 1025.8 0.0
22/11:30am 10.8 3.9 4.5 65 2.9 SSW 30 39 16 21 1025.6 1026.0 0.0
22/11:00am 10.0 3.5 4.8 70 2.4 SSW 28 37 15 20 1025.6 1026.0 0.0
22/10:30am 10.1 3.1 4.0 66 2.7 SSW 30 39 16 21 1025.4 1025.8 0.0
22/10:00am 9.8 3.5 3.8 66 2.6 SSW 26 37 14 20 1025.1 1025.5 0.0
22/09:30am 9.5 3.6 5.7 77 1.8 SSW 26 33 14 18 1024.6 1025.0 0.0
22/09:00am 9.1 3.8 6.9 86 1.0 SSW 24 32 13 17 1024.2 1024.6 0.6
22/08:30am 9.0 4.5 8.4 96 0.3 SSW 22 30 12 16 1023.6 1024.0 0.6
22/08:00am 8.7 5.2 8.7 100 0.0 SW 17 24 9 13 1023.0 1023.4 0.6
22/07:30am 8.4 4.2 8.3 99 0.0 SW 20 32 11 17 1022.6 1022.9 0.6
22/07:00am 8.8 3.9 8.5 98 0.1 SW 24 32 13 17 1022.3 1022.6 0.6
22/06:30am 9.1 5.1 9.0 99 0.0 SW 20 35 11 19 1021.9 1022.2 0.6
22/06:00am 9.1 4.7 9.1 100 0.0 SW 22 30 12 16 1021.4 1021.8 0.4
22/05:30am 9.3 5.0 9.3 100 0.0 SW 22 35 12 19 1021.0 1021.4 0.4
22/05:00am 9.3 4.2 9.2 99 0.0 SW 26 37 14 20 1020.9 1021.3 0.4
22/04:30am 9.3 4.2 9.2 99 0.0 SW 26 41 14 22 1020.7 1021.1 0.4
22/04:00am 9.4 4.4 9.4 100 0.0 WSW 26 37 14 20 1020.6 1021.0 0.4
22/03:30am 9.4 4.0 9.4 100 0.0 SW 28 43 15 23 1020.7 1021.1 0.4
22/03:00am 9.3 3.1 9.3 100 0.0 SW 32 43 17 23 1020.7 1021.1 0.4
22/02:42am 9.6 3.3 9.6 100 0.0 WSW 33 54 18 29 1020.6 1021.0 0.4
22/02:30am 9.8 4.5 9.8 100 0.0 WSW 28 43 15 23 1020.4 1020.8 0.2
22/02:00am 9.9 4.6 9.9 100 0.0 WSW 28 41 15 22 1020.5 1020.9 0.2
22/01:30am 9.7 4.7 9.7 100 0.0 WSW 26 41 14 22 1020.5 1020.9 0.2
22/01:00am 10.2 4.0 9.4 95 0.4 WSW 32 46 17 25 1020.3 1020.7 0.0
22/12:30am 10.7 4.2 8.8 88 0.9 WSW 33 56 18 30 1020.0 1020.4 0.0
22/12:13am 10.8 4.7 9.6 92 0.6 WSW 32 50 17 27 1019.9 1020.3 0.0
22/12:00am 10.7 4.7 10.1 96 0.3 WSW 32 46 17 25 1019.9 1020.3 0.0
 
Date/Time
EST
Temp
°C
App
Temp
°C
Dew
Point
°C
Rel
Hum
%
Delta-T
°C
Wind Press
QNH
hPa
Press
MSL
hPa
Rain since
9am
mm
Dir  Spd
km/h
Gust
km/h
Spd
kts
Gust
kts
21/11:30pm 10.4 5.9 10.2 99 0.1 WSW 24 37 13 20 1019.9 1020.3 0.0
21/11:00pm 10.2 5.2 9.7 97 0.3 W 26 41 14 22 1019.8 1020.2 0.0
21/10:30pm 10.4 5.3 9.3 93 0.6 W 26 37 14 20 1019.9 1020.3 0.0
21/10:00pm 10.6 4.6 8.7 88 0.9 W 30 41 16 22 1019.9 1020.3 0.0
21/09:30pm 11.0 4.9 8.4 84 1.3 W 30 41 16 22 1020.1 1020.5 0.0
21/09:00pm 10.8 5.2 8.6 86 1.1 W 28 41 15 22 1020.3 1020.7 0.0
21/08:30pm 10.5 6.0 8.6 88 0.9 W 22 35 12 19 1020.2 1020.6 0.0
21/08:00pm 10.8 6.0 8.7 87 1.0 W 24 33 13 18 1020.0 1020.4 0.0
21/07:30pm 10.8 6.4 8.9 88 1.0 W 22 46 12 25 1020.6 1021.0 0.0
21/07:00pm 11.2 6.5 9.1 87 1.1 W 24 33 13 18 1020.5 1020.9 0.0
21/06:30pm 11.3 7.2 8.7 84 1.3 W 20 28 11 15 1020.4 1020.8 0.0
21/06:00pm 11.3 6.7 8.2 81 1.5 W 22 32 12 17 1020.1 1020.5 0.0
21/05:30pm 11.6 7.6 8.1 79 1.7 W 19 30 10 16 1020.1 1020.5 0.0
21/05:00pm 12.0 7.1 8.3 78 1.8 W 24 37 13 20 1019.9 1020.3 0.0
21/04:30pm 12.4 7.3 7.7 73 2.3 W 24 33 13 18 1019.8 1020.2 0.0
21/04:00pm 12.7 7.2 7.4 70 2.6 W 26 39 14 21 1020.2 1020.6 0.0
21/03:30pm 12.7 7.5 7.4 70 2.6 WSW 24 39 13 21 1020.5 1020.9 0.0
21/03:00pm 13.4 7.8 7.2 66 3.0 WSW 26 37 14 20 1020.5 1020.9 0.0
21/02:30pm 13.2 6.9 7.4 68 2.9 W 30 48 16 26 1020.3 1020.7 0.0
21/02:27pm 13.7 7.5 7.7 67 3.0 W 30 48 16 26 1020.2 1020.6 0.0
21/02:00pm 14.3 9.5 8.9 70 2.8 W 24 41 13 22 1020.2 1020.6 0.0
21/01:30pm 13.5 8.3 9.0 74 2.3 W 26 43 14 23 1020.3 1020.7 0.0
21/01:00pm 13.1 8.3 8.8 75 2.2 WSW 24 37 13 20 1020.7 1021.1 0.0
21/12:30pm 12.4 7.6 8.9 79 1.8 WSW 24 33 13 18 1021.2 1021.6 0.0
21/12:00pm 12.3 8.2 10.2 87 1.1 WSW 22 35 12 19 1021.6 1022.0 0.0
21/11:30am 11.7 6.7 9.4 86 1.2 WSW 26 37 14 20 1022.0 1022.3 0.0
21/11:00am 11.3 6.5 10.2 93 0.6 WSW 26 37 14 20 1021.9 1022.2 0.0
21/10:30am 10.8 6.6 9.9 94 0.5 WSW 22 32 12 17 1021.4 1021.8 0.0
21/10:00am 11.2 6.3 10.1 93 0.6 WSW 26 39 14 21 1021.1 1021.5 0.0
21/09:30am 10.7 6.2 9.9 95 0.4 WSW 24 41 13 22 1021.5 1021.9 0.0
21/09:00am 10.5 5.7 10.3 99 0.1 WSW 26 37 14 20 1021.6 1022.0 0.6
21/08:30am 10.3 5.9 10.3 100 0.0 WSW 24 37 13 20 1021.6 1022.0 0.6
21/08:00am 10.1 6.4 10.1 100 0.0 WSW 20 35 11 19 1021.2 1021.6 0.6

Other formats

Comma delimited format used in spreadsheet applications
http://www.bom.gov.au/fwo/IDV60801/IDV60801.95840.axf

JavaScript Object Notation format (JSON) in row-major order
http://www.bom.gov.au/fwo/IDV60801/IDV60801.95840.json

Data quality

Most of these data are generated automatically and are frequently updated. Quality checks on data are not normally performed. It is possible for incorrect values to appear. Refer to information at About Latest Weather Observations and please check the disclaimer before using these data.